Mississippi State University, Mississippi
Current Conditions -  °F | °C
As of 4:35 AM on Sunday 26 Oct 2014 (Local Time) from KSTF Reporting Station
Haze Haze  
Wind Chill: 54°   Ceiling: 700
Heat Index: 54°   Visibility: 1.5mi
Dew Point: 54°   Wind: 0mph
Humidity: 100%   Direction: NA
Pressure: 30.03"   Gusts: NA
Location:  33.4516°N, 88.7888°W
Report Text: KSTF 260935Z AUTO 00000KT 1 1/2SM BR VV007 12/12 A3003 RMK AO2 VIS 1/2V5
Loading
Personal Weather Stations






























Interactive Weather Map
Tropical Storm Tracking
New forecast layout! Learn more

10-Day Weather Forecast

Advertisements
Track Severe Weather on mobile